Time;durP1;ratioP1;P1;durP2;ratioP2;P2;SDS_P1;SDS_P2;PMS_P1;PMS_P2;Temp;Humidity;BMP_temperature;BMP_pressure;BME280_temperature;BME280_humidity;BME280_pressure;Samples;Min_cycle;Max_cycle;Signal;HPM_P1;HPM_P2
2024/04/17 00:00:38;;;;;;;4.60;4.20;;;8.50;99.90;;;;;;5440700;26;20235;-74
2024/04/17 00:03:04;;;;;;;5.23;4.70;;;8.50;99.90;;;;;;5479180;26;20250;-74
2024/04/17 00:05:29;;;;;;;4.60;4.20;;;8.40;99.90;;;;;;5465346;26;20235;-74
2024/04/17 00:07:55;;;;;;;5.23;4.83;;;8.50;99.90;;;;;;5445919;26;20245;-74
2024/04/17 00:10:22;;;;;;;5.77;5.27;;;8.50;99.90;;;;;;5471138;26;20619;-73
2024/04/17 00:12:48;;;;;;;5.47;4.97;;;8.50;99.90;;;;;;5433080;26;20321;-74
2024/04/17 00:15:13;;;;;;;5.23;4.80;;;8.50;99.90;;;;;;5449517;26;20240;-74
2024/04/17 00:17:39;;;;;;;5.43;4.93;;;8.50;99.90;;;;;;5449349;26;20307;-73
2024/04/17 00:20:05;;;;;;;6.20;5.60;;;8.40;99.90;;;;;;5462594;26;20626;-73
2024/04/17 00:22:31;;;;;;;5.83;5.30;;;8.50;99.90;;;;;;5451847;26;20347;-74
2024/04/17 00:24:56;;;;;;;6.03;5.43;;;8.40;99.90;;;;;;5453492;26;20228;-73
2024/04/17 00:27:22;;;;;;;6.93;4.83;;;8.50;99.90;;;;;;5489832;26;20354;-75
2024/04/17 00:29:47;;;;;;;6.53;5.30;;;8.60;99.90;;;;;;5472447;26;20334;-74
2024/04/17 00:32:14;;;;;;;6.53;5.87;;;8.70;99.90;;;;;;5453442;26;20293;-73
2024/04/17 00:34:39;;;;;;;6.27;5.67;;;8.70;99.90;;;;;;5452888;26;20347;-72
2024/04/17 00:37:05;;;;;;;6.03;5.53;;;8.60;99.90;;;;;;5473609;26;20227;-73
2024/04/17 00:39:31;;;;;;;6.43;5.83;;;8.60;99.90;;;;;;5489281;26;20281;-74
2024/04/17 00:41:56;;;;;;;7.80;6.07;;;8.60;99.90;;;;;;5471441;26;20334;-76
2024/04/17 00:44:22;;;;;;;6.23;5.60;;;8.60;99.90;;;;;;5458731;26;20633;-73
2024/04/17 00:46:48;;;;;;;6.57;5.97;;;8.60;99.90;;;;;;5457090;26;20235;-74
2024/04/17 00:49:13;;;;;;;6.53;5.57;;;8.60;99.90;;;;;;5490120;26;20683;-75
2024/04/17 00:51:39;;;;;;;7.23;6.63;;;8.50;99.90;;;;;;5464236;26;20254;-74
2024/04/17 00:54:07;;;;;;;6.83;6.13;;;8.50;99.90;;;;;;5488414;26;20645;-74
2024/04/17 00:56:33;;;;;;;6.43;5.83;;;8.40;99.90;;;;;;5478957;26;20736;-75
2024/04/17 00:59:00;;;;;;;8.00;6.17;;;8.30;99.90;;;;;;5488766;26;20229;-74
2024/04/17 01:01:25;;;;;;;7.00;5.83;;;8.20;99.90;;;;;;5460739;26;20611;-74
2024/04/17 01:03:51;;;;;;;6.33;5.70;;;8.30;99.90;;;;;;5488188;26;20427;-73
2024/04/17 01:06:17;;;;;;;6.47;5.87;;;8.30;99.90;;;;;;5454327;26;20724;-74
2024/04/17 01:08:43;;;;;;;6.80;6.20;;;8.30;99.90;;;;;;5450635;26;20596;-74
2024/04/17 01:11:08;;;;;;;6.37;5.77;;;8.20;99.90;;;;;;5457788;26;20242;-75
2024/04/17 01:13:34;;;;;;;6.87;6.20;;;8.30;99.90;;;;;;5461706;26;20590;-73
2024/04/17 01:16:00;;;;;;;6.17;5.57;;;8.30;99.90;;;;;;5460227;26;20225;-73
2024/04/17 01:18:25;;;;;;;6.17;5.57;;;8.30;99.90;;;;;;5490116;26;20229;-74
2024/04/17 01:20:51;;;;;;;6.70;6.10;;;8.30;99.90;;;;;;5473218;26;20266;-74
2024/04/17 01:23:17;;;;;;;6.43;5.77;;;8.30;99.90;;;;;;5453024;26;20589;-73
2024/04/17 01:25:42;;;;;;;6.20;5.37;;;8.20;99.90;;;;;;5451710;26;20279;-75
2024/04/17 01:28:08;;;;;;;6.20;5.60;;;8.10;99.90;;;;;;5451750;26;20251;-73
2024/04/17 01:30:34;;;;;;;6.23;5.57;;;8.10;99.90;;;;;;5479212;26;20266;-74
2024/04/17 01:32:59;;;;;;;7.10;6.40;;;8.10;99.90;;;;;;5484102;26;20233;-74
2024/04/17 01:35:25;;;;;;;6.20;5.60;;;8.20;99.90;;;;;;5465568;26;20234;-75
2024/04/17 01:37:51;;;;;;;6.93;6.23;;;8.20;99.90;;;;;;5461993;26;20225;-73
2024/04/17 01:40:16;;;;;;;6.83;6.23;;;8.30;99.90;;;;;;5454359;26;20229;-74
2024/04/17 01:42:42;;;;;;;6.60;6.00;;;8.20;99.90;;;;;;5458991;26;20328;-75
2024/04/17 01:45:07;;;;;;;6.63;6.00;;;8.20;99.90;;;;;;5473555;26;20240;-73
2024/04/17 01:47:33;;;;;;;7.40;6.70;;;8.30;99.90;;;;;;5490532;26;20724;-74
2024/04/17 01:50:02;;;;;;;8.10;7.03;;;8.30;99.90;;;;;;5474510;26;20238;-74
2024/04/17 01:52:27;;;;;;;7.43;6.73;;;8.30;99.90;;;;;;5479904;26;20265;-76
2024/04/17 01:54:53;;;;;;;8.77;7.23;;;8.30;99.90;;;;;;5456079;26;20246;-73
2024/04/17 01:57:19;;;;;;;6.90;6.20;;;8.20;99.90;;;;;;5462289;26;20335;-73
2024/04/17 01:59:44;;;;;;;7.23;6.53;;;8.10;99.90;;;;;;5467353;26;20847;-74
2024/04/17 02:02:10;;;;;;;7.57;6.40;;;8.00;99.90;;;;;;5463582;26;20239;-73
2024/04/17 02:04:35;;;;;;;8.10;7.00;;;8.10;99.90;;;;;;5466263;26;20234;-74
2024/04/17 02:07:01;;;;;;;6.87;6.17;;;8.20;99.90;;;;;;5487399;26;20240;-73
2024/04/17 02:09:26;;;;;;;10.40;7.03;;;8.20;99.90;;;;;;5463969;26;20233;-75
2024/04/17 02:11:52;;;;;;;8.03;6.83;;;8.20;99.90;;;;;;5471189;26;20241;-74
2024/04/17 02:14:17;;;;;;;6.60;6.00;;;8.30;99.90;;;;;;5452594;26;20229;-74
2024/04/17 02:16:43;;;;;;;8.43;6.93;;;8.30;99.90;;;;;;5456993;26;20269;-74
2024/04/17 02:19:09;;;;;;;7.33;5.90;;;8.30;99.90;;;;;;5458221;26;20240;-73
2024/04/17 02:21:34;;;;;;;6.80;6.10;;;8.20;99.90;;;;;;5477057;26;20285;-74
2024/04/17 02:24:00;;;;;;;6.40;5.73;;;8.30;99.90;;;;;;5433897;26;20236;-74
2024/04/17 02:26:25;;;;;;;7.03;6.10;;;8.30;99.90;;;;;;5451606;26;20242;-75
2024/04/17 02:28:51;;;;;;;6.70;6.00;;;8.20;99.90;;;;;;5483787;26;20670;-73
2024/04/17 02:31:16;;;;;;;7.20;6.17;;;8.30;99.90;;;;;;5456199;26;20244;-73
2024/04/17 02:33:42;;;;;;;6.40;5.80;;;8.30;99.90;;;;;;5485947;26;20230;-74
2024/04/17 02:36:08;;;;;;;6.43;5.73;;;8.30;99.90;;;;;;5477238;26;20828;-75
2024/04/17 02:38:34;;;;;;;6.37;5.77;;;8.30;99.90;;;;;;5452626;26;20282;-74
2024/04/17 02:40:59;;;;;;;5.93;5.30;;;8.30;99.90;;;;;;5462638;26;20558;-74
2024/04/17 02:43:25;;;;;;;6.90;5.57;;;8.20;99.90;;;;;;5459564;26;20773;-74
2024/04/17 02:45:51;;;;;;;6.57;5.50;;;8.20;99.90;;;;;;5487772;26;20283;-75
2024/04/17 02:48:16;;;;;;;6.07;5.47;;;8.30;99.90;;;;;;5488658;26;20346;-75
2024/04/17 02:50:42;;;;;;;9.90;6.00;;;8.40;99.90;;;;;;5436559;26;20311;-74
2024/04/17 02:53:08;;;;;;;6.17;5.57;;;8.40;99.90;;;;;;5492639;26;20227;-73
2024/04/17 02:55:34;;;;;;;5.77;5.10;;;8.40;99.90;;;;;;5478362;26;20231;-74
2024/04/17 02:57:59;;;;;;;5.97;5.37;;;8.40;99.90;;;;;;5488284;26;20260;-73
2024/04/17 03:00:26;;;;;;;7.80;6.10;;;8.30;99.90;;;;;;5486922;26;20233;-74
2024/04/17 03:02:51;;;;;;;7.83;5.97;;;8.20;99.90;;;;;;5458489;26;20285;-74
2024/04/17 03:05:17;;;;;;;7.23;6.30;;;8.30;99.90;;;;;;5486080;26;20734;-76
2024/04/17 03:07:44;;;;;;;7.10;6.03;;;8.30;99.90;;;;;;5446010;26;20739;-74
2024/04/17 03:10:10;;;;;;;8.33;6.40;;;8.30;99.90;;;;;;5452829;26;20246;-75
2024/04/17 03:12:36;;;;;;;8.37;6.40;;;8.30;99.90;;;;;;5506950;26;20254;-75
2024/04/17 03:15:02;;;;;;;8.17;6.23;;;8.30;99.90;;;;;;5480219;26;20234;-74
2024/04/17 03:17:27;;;;;;;7.23;6.47;;;8.40;99.90;;;;;;5456365;26;20230;-75
2024/04/17 03:19:53;;;;;;;6.80;6.10;;;8.40;99.90;;;;;;5488233;26;20281;-73
2024/04/17 03:22:19;;;;;;;7.77;5.97;;;8.30;99.90;;;;;;5486693;26;20248;-74
2024/04/17 03:24:44;;;;;;;6.97;6.17;;;8.40;99.90;;;;;;5442614;26;20241;-74
2024/04/17 03:27:10;;;;;;;6.37;5.73;;;8.30;99.90;;;;;;5470062;26;20229;-74
2024/04/17 03:29:35;;;;;;;8.83;7.00;;;8.40;99.90;;;;;;5451652;26;20274;-74
2024/04/17 03:32:05;;;;;;;8.20;5.83;;;8.40;99.90;;;;;;5461681;26;20240;-73
2024/04/17 03:34:30;;;;;;;7.63;6.83;;;8.30;99.90;;;;;;5472414;26;20234;-75
2024/04/17 03:36:56;;;;;;;6.93;5.20;;;8.40;99.90;;;;;;5483840;26;20239;-73
2024/04/17 03:39:21;;;;;;;8.37;6.57;;;8.40;99.90;;;;;;5476521;26;20233;-73
2024/04/17 03:41:47;;;;;;;6.47;5.77;;;8.40;99.90;;;;;;5479461;26;20243;-72
2024/04/17 03:44:13;;;;;;;4.00;3.60;;;8.60;99.90;;;;;;5458428;26;20337;-77
2024/04/17 03:46:38;;;;;;;5.67;4.97;;;9.70;99.90;;;;;;5466658;26;20239;-73
2024/04/17 03:49:04;;;;;;;5.00;4.20;;;10.30;99.90;;;;;;5450949;26;20228;-73
2024/04/17 03:51:29;;;;;;;6.73;5.33;;;10.70;99.90;;;;;;5451446;26;20729;-72
2024/04/17 03:53:55;;;;;;;7.30;6.43;;;11.00;99.90;;;;;;5464383;26;20350;-73
2024/04/17 03:56:21;;;;;;;8.90;6.70;;;10.70;99.90;;;;;;5469690;26;20232;-73
2024/04/17 03:58:46;;;;;;;7.30;6.43;;;10.30;99.90;;;;;;5459230;26;20250;-73
2024/04/17 04:01:13;;;;;;;9.63;6.90;;;9.90;99.90;;;;;;5469567;26;20274;-72
2024/04/17 04:03:39;;;;;;;8.20;5.80;;;9.50;99.90;;;;;;5451084;26;20240;-74
2024/04/17 04:06:05;;;;;;;8.50;7.23;;;9.30;99.90;;;;;;5451106;26;20232;-73
2024/04/17 04:08:31;;;;;;;8.53;7.03;;;9.10;99.90;;;;;;5458356;26;20646;-72
2024/04/17 04:10:56;;;;;;;9.13;7.37;;;9.00;99.90;;;;;;5471964;26;20345;-73
2024/04/17 04:13:22;;;;;;;9.13;6.87;;;8.80;99.90;;;;;;5455063;26;20293;-74
2024/04/17 04:15:51;;;;;;;9.17;7.97;;;8.70;99.90;;;;;;5487290;26;20230;-73
2024/04/17 04:18:17;;;;;;;8.93;6.90;;;8.60;99.90;;;;;;5451141;26;20235;-72
2024/04/17 04:20:43;;;;;;;7.80;7.00;;;8.60;99.90;;;;;;5477558;26;20277;-73
2024/04/17 04:23:08;;;;;;;8.13;7.27;;;8.70;99.90;;;;;;5469635;26;20249;-74
2024/04/17 04:25:34;;;;;;;9.40;7.43;;;8.60;99.90;;;;;;5457034;26;20607;-72
2024/04/17 04:27:59;;;;;;;8.50;6.77;;;8.60;99.90;;;;;;5426289;26;20245;-72
2024/04/17 04:30:25;;;;;;;8.23;7.43;;;8.50;99.90;;;;;;5468555;26;20257;-73
2024/04/17 04:32:51;;;;;;;9.63;7.30;;;8.40;99.90;;;;;;5460261;26;20273;-74
2024/04/17 04:35:16;;;;;;;8.57;7.67;;;8.40;99.90;;;;;;5464559;26;20354;-71
2024/04/17 04:37:42;;;;;;;9.07;7.33;;;8.40;99.90;;;;;;5469634;26;20300;-73
2024/04/17 04:40:08;;;;;;;7.73;6.90;;;8.40;99.90;;;;;;5486145;26;20349;-72
2024/04/17 04:42:33;;;;;;;9.37;8.23;;;8.40;99.90;;;;;;5450527;26;20576;-74
2024/04/17 04:44:59;;;;;;;10.70;7.67;;;8.40;99.90;;;;;;5480743;26;20269;-72
2024/04/17 04:47:24;;;;;;;10.57;8.10;;;8.40;99.90;;;;;;5494816;26;20234;-72
2024/04/17 04:49:50;;;;;;;8.57;7.77;;;8.30;99.90;;;;;;5473883;26;20239;-72
2024/04/17 04:52:15;;;;;;;9.23;7.77;;;8.30;99.90;;;;;;5482627;26;20230;-72
2024/04/17 04:54:41;;;;;;;9.97;8.13;;;8.40;99.90;;;;;;5486407;26;20229;-73
2024/04/17 04:57:07;;;;;;;9.47;7.70;;;8.50;99.90;;;;;;5454177;26;20230;-73
2024/04/17 04:59:32;;;;;;;9.27;8.10;;;8.50;99.90;;;;;;5459728;26;20635;-74
2024/04/17 05:01:58;;;;;;;9.80;8.23;;;8.50;99.90;;;;;;5476847;26;20229;-73
2024/04/17 05:04:24;;;;;;;8.87;7.93;;;8.30;99.90;;;;;;5467002;26;20349;-73
2024/04/17 05:06:50;;;;;;;11.20;8.17;;;8.30;99.90;;;;;;5457486;26;20285;-73
2024/04/17 05:09:15;;;;;;;9.00;8.10;;;8.50;99.90;;;;;;5453113;26;20230;-76
2024/04/17 05:11:41;;;;;;;9.83;8.20;;;8.50;99.90;;;;;;5473206;26;20285;-73
2024/04/17 05:14:06;;;;;;;9.60;8.60;;;8.50;99.90;;;;;;5460454;26;20339;-73
2024/04/17 05:16:32;;;;;;;11.97;8.20;;;8.50;99.90;;;;;;5452891;26;20277;-73
2024/04/17 05:18:57;;;;;;;9.53;8.50;;;8.50;99.90;;;;;;5421570;26;20368;-73
2024/04/17 05:21:23;;;;;;;11.67;8.23;;;8.50;99.90;;;;;;5453533;26;20238;-74
2024/04/17 05:23:49;;;;;;;12.60;8.87;;;8.50;99.90;;;;;;5473266;26;20238;-73
2024/04/17 05:26:14;;;;;;;9.17;7.97;;;8.80;99.90;;;;;;5470329;26;20272;-73
2024/04/17 05:28:40;;;;;;;10.20;8.20;;;8.90;99.90;;;;;;5468408;26;20227;-72
2024/04/17 05:31:06;;;;;;;7.50;6.80;;;8.90;99.90;;;;;;5453589;26;20281;-74
2024/04/17 05:33:31;;;;;;;8.23;7.40;;;8.90;99.90;;;;;;5453611;26;20341;-72
2024/04/17 05:35:57;;;;;;;10.70;8.67;;;9.00;99.90;;;;;;5474276;26;20238;-73
2024/04/17 05:38:23;;;;;;;9.10;8.00;;;9.00;99.90;;;;;;5489535;26;20230;-73
2024/04/17 05:40:48;;;;;;;8.90;8.10;;;8.90;99.90;;;;;;5489561;26;20255;-73
2024/04/17 05:43:18;;;;;;;10.07;8.50;;;8.80;99.90;;;;;;5490030;26;20784;-73
2024/04/17 05:45:44;;;;;;;9.63;8.60;;;8.70;99.90;;;;;;5488543;26;20233;-73
2024/04/17 05:48:10;;;;;;;9.30;7.73;;;8.70;99.90;;;;;;5476466;26;20227;-74
2024/04/17 05:50:37;;;;;;;8.70;7.73;;;8.70;99.90;;;;;;5453366;26;20381;-72
2024/04/17 05:53:03;;;;;;;9.70;8.43;;;8.70;99.90;;;;;;5467481;26;20357;-73
2024/04/17 05:55:29;;;;;;;9.50;8.43;;;8.60;99.90;;;;;;5466604;26;20233;-72
2024/04/17 05:57:55;;;;;;;9.30;7.87;;;8.60;99.90;;;;;;5438069;26;20238;-75
2024/04/17 06:00:20;;;;;;;10.57;8.70;;;8.70;99.90;;;;;;5452640;26;20250;-73
2024/04/17 06:02:46;;;;;;;11.80;9.73;;;8.60;99.90;;;;;;5488685;26;20231;-73
2024/04/17 06:05:12;;;;;;;9.30;8.30;;;8.60;99.90;;;;;;5458835;26;20234;-73
2024/04/17 06:07:38;;;;;;;10.27;8.17;;;8.60;99.90;;;;;;5467198;26;20231;-73
2024/04/17 06:10:05;;;;;;;9.80;7.73;;;8.50;99.90;;;;;;5452063;26;20575;-72
2024/04/17 06:12:30;;;;;;;10.40;7.90;;;8.60;99.90;;;;;;5486221;26;20232;-72
2024/04/17 06:14:56;;;;;;;10.27;8.23;;;8.60;99.90;;;;;;5488301;26;20311;-74
2024/04/17 06:17:22;;;;;;;9.57;8.27;;;8.60;99.90;;;;;;5460064;26;20320;-74
2024/04/17 06:19:48;;;;;;;10.90;8.57;;;8.60;99.90;;;;;;5496334;21;20291;-71
2024/04/17 06:22:14;;;;;;;11.47;8.50;;;8.70;99.90;;;;;;5420159;26;20243;-73
2024/04/17 06:24:40;;;;;;;9.83;8.53;;;8.70;99.90;;;;;;5452855;26;20235;-73
2024/04/17 06:27:06;;;;;;;9.60;8.50;;;8.70;99.90;;;;;;5427206;26;20288;-72
2024/04/17 06:29:31;;;;;;;8.87;7.77;;;8.70;99.90;;;;;;5455941;26;20234;-73
2024/04/17 06:31:57;;;;;;;14.57;9.60;;;8.70;99.90;;;;;;5417446;26;20375;-73
2024/04/17 06:34:23;;;;;;;11.53;8.47;;;8.60;99.90;;;;;;5416477;26;20617;-73
2024/04/17 06:36:48;;;;;;;10.90;9.10;;;8.60;99.90;;;;;;5416920;26;20240;-73
2024/04/17 06:39:14;;;;;;;11.37;9.17;;;8.60;99.90;;;;;;5383993;26;20256;-72
2024/04/17 06:41:39;;;;;;;11.37;9.00;;;8.60;99.90;;;;;;5415702;26;20327;-71
2024/04/17 06:44:05;;;;;;;13.77;9.73;;;8.70;99.90;;;;;;5428525;26;20322;-72
2024/04/17 06:46:31;;;;;;;11.73;8.37;;;8.80;99.90;;;;;;5419169;26;20286;-73
2024/04/17 06:48:56;;;;;;;10.90;9.50;;;8.90;99.90;;;;;;5416271;26;20591;-73
2024/04/17 06:51:22;;;;;;;10.53;8.87;;;8.70;99.90;;;;;;5401429;26;20283;-71
2024/04/17 06:53:47;;;;;;;11.07;8.73;;;8.80;99.90;;;;;;5416158;26;20239;-73
2024/04/17 06:56:13;;;;;;;10.17;8.17;;;8.80;99.90;;;;;;5412256;26;20244;-72
2024/04/17 06:58:39;;;;;;;13.17;8.80;;;8.90;99.90;;;;;;5422096;26;20244;-73
2024/04/17 07:01:05;;;;;;;10.13;8.83;;;8.90;99.90;;;;;;5416292;26;20282;-73
2024/04/17 07:03:30;;;;;;;10.37;8.17;;;8.90;99.90;;;;;;5418406;26;20239;-73
2024/04/17 07:06:00;;;;;;;11.20;8.57;;;8.80;99.90;;;;;;5384759;26;20382;-73
2024/04/17 07:08:26;;;;;;;10.57;8.87;;;8.80;99.90;;;;;;5377651;26;20240;-74
2024/04/17 07:10:52;;;;;;;11.23;9.47;;;8.90;99.90;;;;;;5423713;26;20289;-73
2024/04/17 07:13:17;;;;;;;11.13;8.73;;;8.70;99.90;;;;;;5416443;26;20270;-72
2024/04/17 07:15:43;;;;;;;10.63;9.53;;;8.80;99.90;;;;;;5415140;26;20653;-72
2024/04/17 07:18:09;;;;;;;11.80;8.47;;;8.80;99.90;;;;;;5429762;26;20347;-74
2024/04/17 07:20:34;;;;;;;12.10;9.17;;;8.80;99.90;;;;;;5414972;26;20248;-73
2024/04/17 07:23:00;;;;;;;10.43;8.83;;;8.80;99.90;;;;;;5414361;26;20240;-73
2024/04/17 07:25:26;;;;;;;10.03;8.77;;;8.80;99.90;;;;;;5415736;26;20240;-74
2024/04/17 07:27:51;;;;;;;11.77;8.40;;;8.80;99.90;;;;;;5414794;26;20583;-73
2024/04/17 07:30:17;;;;;;;9.40;8.27;;;8.90;99.90;;;;;;5377561;26;20249;-72
2024/04/17 07:32:44;;;;;;;9.30;8.10;;;8.80;99.90;;;;;;5418104;26;20234;-73
2024/04/17 07:35:10;;;;;;;11.07;8.47;;;8.80;99.90;;;;;;5386396;26;20279;-72
2024/04/17 07:37:36;;;;;;;13.23;10.67;;;8.80;99.90;;;;;;5397919;26;20230;-73
2024/04/17 07:40:02;;;;;;;10.33;8.27;;;8.80;99.90;;;;;;5412410;26;20248;-73
2024/04/17 07:42:28;;;;;;;10.33;7.73;;;8.70;99.90;;;;;;5417381;26;20315;-73
2024/04/17 07:44:53;;;;;;;8.20;7.30;;;8.70;99.90;;;;;;5414734;26;20576;-72
2024/04/17 07:47:19;;;;;;;8.77;7.33;;;8.60;99.90;;;;;;5414051;26;20633;-72
2024/04/17 07:49:45;;;;;;;9.27;8.07;;;8.60;99.90;;;;;;5384393;26;20745;-73
2024/04/17 07:52:10;;;;;;;9.23;8.17;;;8.60;99.90;;;;;;5416650;26;20312;-72
2024/04/17 07:54:36;;;;;;;9.90;8.33;;;8.70;99.90;;;;;;5395409;26;20241;-74
2024/04/17 07:57:02;;;;;;;9.30;8.30;;;8.60;99.90;;;;;;5415400;26;20313;-72
2024/04/17 07:59:27;;;;;;;9.10;7.20;;;8.60;99.90;;;;;;5415238;26;20797;-72
2024/04/17 08:01:54;;;;;;;10.87;8.20;;;8.60;99.90;;;;;;5408598;26;20774;-72
2024/04/17 08:04:20;;;;;;;8.87;7.97;;;8.60;99.90;;;;;;5377253;26;20607;-72
2024/04/17 08:06:46;;;;;;;9.23;8.00;;;8.60;99.90;;;;;;5412172;26;20261;-73
2024/04/17 08:09:11;;;;;;;9.03;7.90;;;8.60;99.90;;;;;;5383568;26;20241;-73
2024/04/17 08:11:37;;;;;;;9.60;8.13;;;8.70;99.90;;;;;;5379797;26;20327;-73
2024/04/17 08:14:03;;;;;;;8.50;7.60;;;8.90;99.90;;;;;;5377703;26;20242;-72
2024/04/17 08:16:29;;;;;;;8.77;7.87;;;9.10;99.90;;;;;;5376512;26;20248;-75
2024/04/17 08:18:55;;;;;;;8.50;7.60;;;9.10;99.90;;;;;;5414916;26;20341;-73
2024/04/17 08:21:23;;;;;;;8.90;7.53;;;9.30;99.90;;;;;;5377751;26;20273;-73
2024/04/17 08:23:49;;;;;;;11.77;8.57;;;9.30;99.90;;;;;;5413603;26;20694;-72
2024/04/17 08:26:14;;;;;;;10.60;7.97;;;9.30;99.90;;;;;;5378916;26;20241;-72
2024/04/17 08:28:40;;;;;;;8.07;7.27;;;9.30;99.90;;;;;;5413378;26;20279;-72
2024/04/17 08:31:06;;;;;;;8.43;7.53;;;9.30;99.90;;;;;;5431073;26;20398;-73
2024/04/17 08:33:31;;;;;;;10.27;7.53;;;9.30;99.90;;;;;;5381277;26;20241;-75
2024/04/17 08:35:57;;;;;;;12.10;8.13;;;9.30;99.90;;;;;;5424245;26;20297;-73
2024/04/17 08:38:23;;;;;;;11.57;8.77;;;9.20;99.90;;;;;;5392142;26;20253;-74
2024/04/17 08:40:51;;;;;;;15.17;7.97;;;9.20;99.90;;;;;;5429953;26;20271;-73
2024/04/17 08:43:26;;;;;;;11.00;7.60;;;9.20;99.90;;;;;;5431411;26;20229;-73
2024/04/17 08:45:54;;;;;;;8.57;7.40;;;9.20;99.90;;;;;;5423321;26;20685;-73
2024/04/17 08:48:21;;;;;;;8.03;7.23;;;9.10;99.90;;;;;;5417993;26;20240;-73
2024/04/17 08:50:47;;;;;;;10.20;7.10;;;9.10;99.90;;;;;;5418267;26;20329;-74
2024/04/17 08:53:19;;;;;;;9.83;7.60;;;9.10;99.90;;;;;;5418756;26;20598;-74
2024/04/17 08:55:46;;;;;;;7.87;6.93;;;9.20;99.90;;;;;;5420619;26;20233;-74
2024/04/17 08:58:12;;;;;;;8.00;6.73;;;9.30;99.90;;;;;;5382136;26;20254;-73
2024/04/17 09:00:39;;;;;;;7.37;6.20;;;9.40;99.90;;;;;;5415768;26;20290;-72
2024/04/17 09:03:15;;;;;;;8.30;7.40;;;9.40;99.90;;;;;;5417603;26;20380;-73
2024/04/17 09:05:41;;;;;;;7.50;6.73;;;9.40;99.90;;;;;;5416823;26;20232;-72
2024/04/17 09:08:07;;;;;;;10.67;6.47;;;9.40;99.90;;;;;;5417527;26;20233;-73
2024/04/17 09:10:34;;;;;;;7.37;6.57;;;9.50;99.90;;;;;;5435344;26;20387;-72
2024/04/17 09:13:01;;;;;;;7.47;6.60;;;9.50;99.90;;;;;;5421084;26;20250;-74
2024/04/17 09:15:27;;;;;;;8.30;7.00;;;9.60;99.90;;;;;;5390786;26;20242;-72
2024/04/17 09:17:54;;;;;;;6.80;6.10;;;9.60;99.90;;;;;;5416720;26;20248;-72
2024/04/17 09:20:20;;;;;;;11.27;7.37;;;9.70;99.90;;;;;;5385386;26;20303;-74
2024/04/17 09:22:46;;;;;;;8.87;6.77;;;10.00;99.90;;;;;;5416658;26;20640;-74
2024/04/17 09:25:15;;;;;;;6.47;5.87;;;10.60;99.90;;;;;;5417169;26;20329;-73
2024/04/17 09:27:42;;;;;;;7.77;5.27;;;11.20;99.90;;;;;;5414562;26;20279;-71
2024/04/17 09:30:08;;;;;;;5.20;4.70;;;11.70;99.90;;;;;;5416819;26;20772;-72
2024/04/17 09:32:33;;;;;;;6.27;5.67;;;12.10;99.90;;;;;;5419017;26;20237;-75
2024/04/17 09:35:00;;;;;;;4.97;4.57;;;12.40;99.90;;;;;;5422828;26;20229;-74
2024/04/17 09:37:26;;;;;;;7.78;5.28;;;12.50;99.90;;;;;;5417798;26;20271;-72
2024/04/17 09:40:05;;;;;;;5.05;4.55;;;12.60;99.90;;;;;;5393563;26;20237;-73
2024/04/17 09:42:34;;;;;;;4.45;4.05;;;12.90;99.90;;;;;;5419750;26;20244;-74
2024/04/17 09:45:01;;;;;;;5.00;4.50;;;13.30;99.90;;;;;;5420121;26;20245;-73
2024/04/17 09:47:28;;;;;;;4.47;4.07;;;13.30;99.90;;;;;;5386962;26;20364;-72
2024/04/17 09:49:59;;;;;;;5.07;3.85;;;13.00;99.90;;;;;;5417072;26;20311;-73
2024/04/17 09:52:29;;;;;;;5.80;4.47;;;12.70;99.90;;;;;;5417421;26;20550;-72
2024/04/17 09:54:56;;;;;;;4.20;3.20;;;12.50;99.90;;;;;;5387552;26;20316;-74
2024/04/17 09:57:22;;;;;;;3.38;3.08;;;12.30;99.90;;;;;;5351322;26;20234;-74
2024/04/17 09:59:49;;;;;;;3.20;2.90;;;12.30;99.90;;;;;;5400283;26;20345;-74
2024/04/17 10:02:16;;;;;;;3.50;3.20;;;12.30;99.90;;;;;;5419040;26;20237;-72
2024/04/17 10:04:42;;;;;;;4.63;3.28;;;12.00;99.90;;;;;;5382936;26;20238;-72
2024/04/17 10:07:11;;;;;;;3.40;3.05;;;11.70;99.90;;;;;;5416588;26;20248;-75
2024/04/17 10:09:40;;;;;;;4.28;2.65;;;11.60;99.90;;;;;;5417196;26;20473;-73
2024/04/17 10:12:11;;;;;;;3.37;2.97;;;11.50;99.90;;;;;;5417520;26;20309;-73
2024/04/17 10:14:38;;;;;;;7.57;3.45;;;11.40;99.90;;;;;;5416854;26;20248;-73
2024/04/17 10:17:06;;;;;;;3.97;3.57;;;11.30;99.90;;;;;;5426032;26;20240;-73
2024/04/17 10:19:35;;;;;;;3.60;3.30;;;11.20;99.90;;;;;;5420664;26;20241;-73
2024/04/17 10:22:05;;;;;;;6.00;3.23;;;11.20;99.90;;;;;;5416418;26;20329;-74
2024/04/17 10:24:31;;;;;;;3.58;3.28;;;11.50;99.90;;;;;;5387124;26;20286;-74
2024/04/17 10:26:57;;;;;;;6.03;3.08;;;11.90;99.90;;;;;;5423513;26;20243;-73
2024/04/17 10:29:29;;;;;;;3.27;2.63;;;12.00;99.90;;;;;;5397443;26;20446;-73
2024/04/17 10:32:05;;;;;;;9.25;3.13;;;12.00;99.90;;;;;;5427164;26;20284;-73
2024/04/17 10:34:42;;;;;;;4.37;2.87;;;12.00;99.90;;;;;;5412163;26;20283;-74
2024/04/17 10:37:09;;;;;;;3.22;2.53;;;11.90;99.90;;;;;;5406798;26;20236;-74
2024/04/17 10:39:38;;;;;;;2.50;2.30;;;11.60;99.90;;;;;;5378526;26;20780;-74
2024/04/17 10:42:08;;;;;;;2.53;2.20;;;11.40;99.90;;;;;;5402176;26;20237;-73
2024/04/17 10:44:35;;;;;;;3.13;2.30;;;11.30;99.90;;;;;;5422930;26;20233;-74
2024/04/17 10:47:05;;;;;;;4.57;2.00;;;11.30;99.90;;;;;;5405766;26;20237;-73
2024/04/17 10:49:39;;;;;;;4.50;2.60;;;11.30;99.90;;;;;;5416042;26;20738;-73
2024/04/17 10:52:07;;;;;;;4.90;2.20;;;11.20;99.90;;;;;;5416705;26;20283;-74
2024/04/17 10:54:36;;;;;;;3.87;2.33;;;11.30;99.90;;;;;;5415816;26;20240;-74
2024/04/17 10:57:05;;;;;;;4.13;2.47;;;11.40;99.90;;;;;;5416998;26;20233;-73
2024/04/17 10:59:31;;;;;;;2.83;2.20;;;11.50;99.90;;;;;;5382285;26;20238;-72
2024/04/17 11:01:57;;;;;;;3.25;2.53;;;11.80;99.90;;;;;;5437012;26;20299;-73
2024/04/17 11:04:23;;;;;;;6.35;2.35;;;12.10;99.90;;;;;;5429368;26;20828;-72
2024/04/17 11:06:49;;;;;;;2.60;2.28;;;12.20;99.90;;;;;;5408325;26;20432;-74
2024/04/17 11:09:15;;;;;;;3.17;2.45;;;12.30;99.90;;;;;;5425295;26;20271;-73
2024/04/17 11:11:46;;;;;;;2.60;2.40;;;12.10;99.90;;;;;;5425815;26;20271;-75
2024/04/17 11:14:15;;;;;;;2.92;2.70;;;12.10;99.90;;;;;;5392315;26;20235;-73
2024/04/17 11:16:45;;;;;;;2.38;2.17;;;12.10;99.90;;;;;;5391829;26;20353;-74
2024/04/17 11:19:10;;;;;;;2.50;2.10;;;11.90;99.90;;;;;;5416125;26;20621;-74
2024/04/17 11:21:36;;;;;;;2.88;2.50;;;11.60;99.90;;;;;;5414160;26;20245;-74
2024/04/17 11:24:02;;;;;;;2.65;2.45;;;11.50;99.90;;;;;;5383469;26;20368;-73
2024/04/17 11:26:31;;;;;;;3.10;2.40;;;11.20;99.90;;;;;;5415201;26;20232;-73
2024/04/17 11:28:57;;;;;;;2.70;2.50;;;11.10;99.90;;;;;;5422958;26;20284;-73
2024/04/17 11:31:23;;;;;;;3.30;2.43;;;10.90;99.90;;;;;;5414849;26;20341;-73
2024/04/17 11:33:50;;;;;;;6.07;2.43;;;10.50;99.90;;;;;;5415353;26;20265;-73
2024/04/17 11:36:16;;;;;;;3.50;2.50;;;10.60;99.90;;;;;;5381835;26;20722;-72
2024/04/17 11:38:42;;;;;;;3.20;2.88;;;10.90;99.90;;;;;;5379340;26;20238;-74
2024/04/17 11:41:08;;;;;;;3.93;2.90;;;10.70;99.90;;;;;;5376723;26;20486;-73
2024/04/17 11:43:33;;;;;;;3.33;2.80;;;10.60;99.90;;;;;;5412886;26;20580;-73
2024/04/17 11:45:59;;;;;;;3.80;2.60;;;10.60;99.90;;;;;;5413229;26;20244;-73
2024/04/17 11:48:25;;;;;;;4.17;3.00;;;10.80;99.90;;;;;;5414864;26;20285;-74
2024/04/17 11:50:51;;;;;;;3.37;2.63;;;10.70;99.90;;;;;;5380220;26;20637;-73
2024/04/17 11:53:17;;;;;;;4.22;3.58;;;10.80;99.90;;;;;;5419638;26;20340;-73
2024/04/17 11:55:43;;;;;;;4.77;2.93;;;11.10;99.90;;;;;;5424833;26;20237;-73
2024/04/17 11:58:08;;;;;;;3.85;2.90;;;11.30;99.90;;;;;;5420672;26;20232;-74
2024/04/17 12:00:34;;;;;;;2.22;2.03;;;11.50;99.90;;;;;;5417269;26;20249;-73
2024/04/17 12:03:00;;;;;;;4.40;1.70;;;11.70;99.90;;;;;;5415998;26;20253;-74
2024/04/17 12:05:26;;;;;;;3.70;1.73;;;11.70;99.90;;;;;;5414838;26;20538;-73
2024/04/17 12:07:52;;;;;;;4.60;2.88;;;11.40;99.90;;;;;;5349713;26;20352;-74
2024/04/17 12:10:19;;;;;;;3.60;2.47;;;11.30;99.90;;;;;;5382126;26;20260;-73
2024/04/17 12:12:47;;;;;;;1.60;1.48;;;11.30;99.90;;;;;;5414901;26;20228;-73
2024/04/17 12:15:13;;;;;;;2.03;1.60;;;11.20;99.90;;;;;;5411939;26;20267;-73
2024/04/17 12:17:39;;;;;;;3.90;1.42;;;11.30;99.90;;;;;;5414734;26;20236;-74
2024/04/17 12:20:05;;;;;;;2.92;1.50;;;11.20;99.90;;;;;;5391540;26;20283;-73
2024/04/17 12:22:30;;;;;;;2.73;1.70;;;11.20;99.90;;;;;;5426151;26;20723;-73
2024/04/17 12:27:40;;;;;;;2.17;1.90;;;11.20;99.90;;;;;;5414586;26;20329;-73
2024/04/17 12:30:06;;;;;;;1.35;1.20;;;11.20;99.90;;;;;;5415231;26;20253;-73
2024/04/17 12:32:32;;;;;;;1.42;1.20;;;11.30;99.90;;;;;;5380011;26;20319;-73
2024/04/17 12:34:57;;;;;;;2.03;1.37;;;11.30;99.90;;;;;;5411015;26;20267;-74
2024/04/17 12:37:23;;;;;;;2.47;1.40;;;11.30;99.90;;;;;;5415458;26;20288;-72
2024/04/17 12:39:48;;;;;;;2.80;1.10;;;11.40;99.90;;;;;;5413521;26;20244;-72
2024/04/17 12:42:15;;;;;;;1.95;1.00;;;11.40;99.90;;;;;;5413399;26;20639;-74
2024/04/17 12:44:40;;;;;;;1.88;1.10;;;11.40;99.90;;;;;;5413837;26;20282;-73
2024/04/17 12:47:06;;;;;;;1.50;1.13;;;11.40;99.90;;;;;;5381102;26;20678;-73
2024/04/17 12:49:32;;;;;;;3.63;1.70;;;11.30;99.90;;;;;;5405727;26;20754;-74